Terminal Aerodrome Forecast
Issued by NWS

Home | Current Version | Previous Version | Graphics & Text | Print | Product List | Glossary On
Versions: 1 2 3 4 5 6 7 8 9 10 11 12 13 14
000
FTUS42 KMHX 162348
TAFISO
TAF
KISO 162348Z 1700/1724 00000KT P6SM BKN250
     FM171300 VRB03KT P6SM BKN110
     FM171600 35007KT P6SM -SN SCT025 OVC090
     FM172000 36008KT P6SM -SN SCT007 OVC015
     FM172200 36010KT P6SM OVC007
      AMD LTD TO CLD VIS AND WIND=

USA.gov is the U.S. government's official web portal to all federal, state and local government web resources and services.